»·PEaware :: N520MP KPSP-KBFL

N520MP :: KPSP-KBFL

FLIGHT INFORMATION

Flight Status: Arrived
Operator: Privately registered:
United States
More flights under this callsign
Pilot: Manuel P. (9695)
Aircraft: CANADAIR CL-600 CRJ-200
(CRJ2)
More flights by this aircraft type
Origin: KPSP Palm Springs Intl
United States
Destination: KBFL Meadows
United States
More flights between these airports :: More routes between these airports
Route: +CATH1 PSP V386 PMD FASTO2
File this flight plan on PilotEdge
Remarks:
Altitude:
(Current/Filed)
26,000ft
Speed:
(Current/Filed)
400kts
Departed: 24-Aug-17 02:34 PM
Arrived: 24-Aug-17 03:14 PM
Distance/Time
Traveled:
158nm/0:40
Distance/Time
To Go:
Arrived

Flight Plot

Page will automatically refresh every two minutes.

Flight plan parsing failed; only flown route is shown


Map Options




Map Legend


Flown Route
Filed Route
Departure Airport
Arrival Airport
Navaid (VOR, NDB)
Fix

Horizontal Profiles

Position Reports

Time Latitude Longitude Heading Altitude Ground
Speed
24-Aug-17 14:04 33.822132 -116.495858 323 482ft 0kts
24-Aug-17 14:05 33.822132 -116.495858 323 482ft 0kts
24-Aug-17 14:06 33.822132 -116.495858 323 482ft 0kts
24-Aug-17 14:07 33.822132 -116.495858 323 482ft 0kts
24-Aug-17 14:08 33.822132 -116.495858 323 482ft 0kts
24-Aug-17 14:09 33.822132 -116.495858 323 482ft 0kts
24-Aug-17 14:10 33.822132 -116.495858 323 482ft 0kts
24-Aug-17 14:11 33.822132 -116.495858 323 482ft 0kts
24-Aug-17 14:12 33.822132 -116.495858 323 482ft 0kts
24-Aug-17 14:13 33.822132 -116.495858 323 482ft 0kts
24-Aug-17 14:14 33.822132 -116.495858 323 482ft 0kts
24-Aug-17 14:15 33.822132 -116.495858 323 482ft 0kts
24-Aug-17 14:16 33.822132 -116.495858 323 482ft 0kts
24-Aug-17 14:17 33.822132 -116.495858 323 482ft 0kts
24-Aug-17 14:18 33.822132 -116.495858 323 482ft 0kts
24-Aug-17 14:19 33.822132 -116.495858 323 482ft 0kts
24-Aug-17 14:20 33.822132 -116.495858 323 482ft 0kts
24-Aug-17 14:21 33.822132 -116.495858 323 482ft 0kts
24-Aug-17 14:22 33.822132 -116.495858 323 482ft 0kts
24-Aug-17 14:23 33.822132 -116.495858 323 482ft 0kts
24-Aug-17 14:24 33.822132 -116.495858 323 482ft 0kts
24-Aug-17 14:25 33.822132 -116.495858 323 482ft 0kts
24-Aug-17 14:26 33.822132 -116.495858 323 482ft 0kts
24-Aug-17 14:27 33.822132 -116.495858 323 482ft 0kts
24-Aug-17 14:28 33.822132 -116.495858 323 482ft 0kts
24-Aug-17 14:29 33.822159 -116.496724 278 482ft 5kts
24-Aug-17 14:30 33.823657 -116.498230 324 482ft 9kts
24-Aug-17 14:31 33.826318 -116.500820 324 482ft 12kts
24-Aug-17 14:32 33.828765 -116.502980 324 482ft 10kts
24-Aug-17 14:33 33.832088 -116.505930 323 482ft 20kts
24-Aug-17 14:34 33.835323 -116.509014 269 482ft 9kts
24-Aug-17 14:35 33.835690 -116.511407 320 482ft 10kts
24-Aug-17 14:36 33.838676 -116.513984 321 482ft 15kts
24-Aug-17 14:37 33.841055 -116.516330 278 482ft 0kts
24-Aug-17 14:38 33.835567 -116.512876 143 482ft 107kts
24-Aug-17 14:39 33.806007 -116.470801 111 2152ft 172kts
24-Aug-17 14:40 33.788745 -116.420264 111 4820ft 187kts
24-Aug-17 14:41 33.773673 -116.349780 69 7471ft 261kts
24-Aug-17 14:42 33.774600 -116.265096 137 9998ft 288kts
24-Aug-17 14:43 33.703219 -116.277830 235 11799ft 319kts
24-Aug-17 14:44 33.721561 -116.375385 322 12926ft 349kts
24-Aug-17 14:45 33.792464 -116.427160 335 12962ft 374kts
24-Aug-17 14:46 33.892322 -116.439379 342 13050ft 366kts
24-Aug-17 14:47 34.004498 -116.482222 342 15168ft 365kts
24-Aug-17 14:48 34.099866 -116.519524 341 16952ft 360kts
24-Aug-17 14:49 34.178327 -116.550291 341 18709ft 357kts
24-Aug-17 14:50 34.289662 -116.594065 341 20693ft 362kts
24-Aug-17 14:51 34.368494 -116.625139 341 22188ft 359kts
24-Aug-17 14:52 34.462027 -116.662269 338 23066ft 356kts
24-Aug-17 14:53 34.509506 -116.756588 278 22872ft 349kts
24-Aug-17 14:54 34.521911 -116.872564 276 22861ft 348kts
24-Aug-17 14:55 34.533196 -116.989537 277 24311ft 346kts
24-Aug-17 14:56 34.544312 -117.105674 277 25669ft 351kts
24-Aug-17 14:57 34.555809 -117.227418 276 25884ft 384kts
24-Aug-17 14:58 34.568441 -117.362704 276 25919ft 420kts
24-Aug-17 14:59 34.581583 -117.505438 276 25914ft 431kts
24-Aug-17 15:00 34.594736 -117.650066 276 25647ft 437kts
24-Aug-17 15:01 34.608070 -117.798674 276 23904ft 454kts
24-Aug-17 15:02 34.621267 -117.947769 276 23885ft 444kts
24-Aug-17 15:03 34.653307 -118.087640 308 23890ft 438kts
24-Aug-17 15:04 34.730450 -118.192421 312 23877ft 397kts
24-Aug-17 15:05 34.803596 -118.287932 312 23909ft 381kts
24-Aug-17 15:06 34.876745 -118.383526 312 21538ft 401kts
24-Aug-17 15:07 34.952603 -118.483125 312 17675ft 403kts
24-Aug-17 15:08 35.027030 -118.579437 317 14249ft 368kts
24-Aug-17 15:09 35.093195 -118.654092 315 14233ft 295kts
24-Aug-17 15:10 35.123389 -118.741948 282 11814ft 308kts
24-Aug-17 15:11 35.144188 -118.843141 282 8124ft 313kts
24-Aug-17 15:12 35.159409 -118.942815 282 4753ft 271kts
24-Aug-17 15:13 35.201492 -118.981874 12 4689ft 200kts
24-Aug-17 15:14 35.261483 -118.962944 11 4536ft 242kts
24-Aug-17 15:15 35.331615 -118.951560 1 3678ft 262kts
24-Aug-17 15:16 35.383197 -118.997239 318 2681ft 222kts
24-Aug-17 15:17 35.420407 -119.039798 313 693ft 150kts
24-Aug-17 15:18 35.439897 -119.062709 1 511ft 10kts
24-Aug-17 15:19 35.440299 -119.062649 35 511ft 3kts
24-Aug-17 15:20 35.438460 -119.059564 136 511ft 19kts
24-Aug-17 15:21 35.433750 -119.053835 135 511ft 25kts
24-Aug-17 15:22 35.429288 -119.048462 134 511ft 12kts
24-Aug-17 15:23 35.429962 -119.047029 45 511ft 2kts
24-Aug-17 15:24 35.429911 -119.046636 137 511ft 0kts
24-Aug-17 15:25 35.429911 -119.046636 137 511ft 0kts
24-Aug-17 15:26 35.429911 -119.046636 137 511ft 0kts
24-Aug-17 15:27 35.429911 -119.046636 137 511ft 0kts

Navigation Log

Ident Type
Flight plan parsing failed, navigation log unavailable